Kansas City North, Missouri
Current Conditions -  °F | °C
As of 1:54 PM on Friday 24 Oct 2014 (Local Time) from KMKC Reporting Station
Clear Clear  
Wind Chill: 75°   Ceiling: Unl
Heat Index: 75°   Visibility: 10mi
Dew Point: 62°   Wind: 12mph
Humidity: 64%   Direction: 210°SSW
Pressure: 29.98"   Gusts: NA
Location:  39.1657°N, 94.5231°W
Report Text: KMKC 241854Z 21010KT 10SM CLR 24/17 A2998 RMK AO2 SLP146 T02390167
Loading
Personal Weather Stations






























Interactive Weather Map
Tropical Storm Tracking
New forecast layout! Learn more

10-Day Weather Forecast

Advertisements
Track Severe Weather on mobile